createdAt,value
2019-04-01T00:00:33.504Z,51.90
2019-04-01T00:01:46.146Z,52.17
2019-04-01T00:02:51.207Z,52.18
2019-04-01T00:03:56.496Z,52.18
2019-04-01T00:05:01.468Z,52.17
2019-04-01T00:06:06.566Z,52.18
2019-04-01T00:07:13.536Z,52.13
2019-04-01T00:08:18.890Z,52.15
2019-04-01T00:09:24.139Z,52.18
2019-04-01T00:10:29.194Z,52.23
2019-04-01T00:11:34.263Z,52.21
2019-04-01T00:12:39.266Z,52.23
2019-04-01T00:13:44.633Z,52.24
2019-04-01T00:14:50.077Z,52.24
2019-04-01T00:15:55.211Z,52.22
2019-04-01T00:17:00.799Z,52.22
2019-04-01T00:18:06.229Z,52.24
2019-04-01T00:19:11.339Z,52.21
2019-04-01T00:20:16.400Z,52.22
2019-04-01T00:21:21.492Z,52.25
2019-04-01T00:22:27.296Z,52.42
2019-04-01T00:23:32.312Z,52.42
2019-04-01T00:24:37.385Z,52.27
2019-04-01T00:25:42.422Z,52.33
2019-04-01T00:26:47.704Z,52.34
2019-04-01T00:27:53.102Z,52.39
2019-04-01T00:28:58.420Z,52.36
2019-04-01T00:30:03.567Z,52.38
2019-04-01T00:31:09.060Z,52.41
2019-04-01T00:32:14.477Z,52.49
2019-04-01T00:33:19.593Z,52.49
2019-04-01T00:34:24.567Z,52.53
2019-04-01T00:35:29.560Z,52.60
2019-04-01T00:36:34.544Z,52.63
2019-04-01T00:37:39.875Z,52.65
2019-04-01T00:38:45.059Z,52.66
2019-04-01T00:39:50.141Z,52.66
2019-04-01T00:40:55.532Z,52.70
2019-04-01T00:42:06.452Z,52.71
2019-04-01T00:43:15.607Z,52.72
2019-04-01T00:44:20.602Z,52.76
2019-04-01T00:45:26.034Z,52.81
2019-04-01T00:46:32.838Z,52.85
2019-04-01T00:47:37.854Z,52.92
2019-04-01T00:48:42.776Z,52.95
2019-04-01T00:49:48.290Z,52.97
2019-04-01T00:50:53.366Z,52.95
2019-04-01T00:51:58.473Z,53.00
2019-04-01T00:53:03.522Z,53.02
2019-04-01T00:54:08.702Z,53.10
2019-04-01T00:55:13.759Z,53.15
2019-04-01T00:56:18.873Z,53.16
2019-04-01T00:57:23.912Z,53.16
2019-04-01T00:58:30.702Z,53.18
2019-04-01T00:59:36.168Z,53.21
2019-04-01T01:00:41.505Z,53.23
2019-04-01T01:01:46.700Z,53.27
2019-04-01T01:02:52.201Z,53.30
2019-04-01T01:03:57.330Z,53.32
2019-04-01T01:05:02.466Z,53.34
2019-04-01T01:06:07.646Z,53.37
2019-04-01T01:07:12.605Z,53.41
2019-04-01T01:08:17.976Z,53.44
2019-04-01T01:09:23.401Z,53.46
2019-04-01T01:10:28.677Z,53.49
2019-04-01T01:11:33.904Z,53.53
2019-04-01T01:12:39.236Z,53.54
2019-04-01T01:13:44.317Z,53.56
2019-04-01T01:14:49.411Z,53.60
2019-04-01T01:15:54.554Z,53.68
2019-04-01T01:16:59.761Z,53.73
2019-04-01T01:18:04.885Z,53.76
2019-04-01T01:19:09.982Z,53.81
2019-04-01T01:20:15.133Z,53.84
2019-04-01T01:21:20.856Z,53.85
2019-04-01T01:22:25.910Z,53.85
2019-04-01T01:23:30.896Z,53.86
2019-04-01T01:24:36.513Z,53.87
2019-04-01T01:25:41.491Z,53.91
2019-04-01T01:26:46.882Z,53.97
2019-04-01T01:27:51.969Z,54.00
2019-04-01T01:28:57.435Z,54.04
2019-04-01T01:30:02.502Z,54.07
2019-04-01T01:31:07.536Z,54.11
2019-04-01T01:32:12.591Z,54.13
2019-04-01T01:33:17.821Z,54.16
2019-04-01T01:34:23.423Z,54.18
2019-04-01T01:35:28.589Z,54.22
2019-04-01T01:36:34.005Z,54.25
2019-04-01T01:37:39.356Z,54.27
2019-04-01T01:38:44.325Z,54.27
2019-04-01T01:39:49.452Z,54.29
2019-04-01T01:40:54.792Z,54.33
2019-04-01T01:42:00.040Z,54.32
2019-04-01T01:43:05.130Z,54.35
2019-04-01T01:44:10.279Z,54.43
2019-04-01T01:45:15.387Z,54.48
2019-04-01T01:46:20.846Z,54.52
2019-04-01T01:47:25.953Z,54.54
2019-04-01T01:48:31.490Z,54.55
2019-04-01T01:49:36.538Z,54.58
2019-04-01T01:50:41.531Z,54.65
2019-04-01T01:51:46.508Z,54.68
2019-04-01T01:52:51.648Z,54.69
2019-04-01T01:53:56.673Z,54.70
2019-04-01T01:55:02.004Z,54.70
2019-04-01T01:56:07.059Z,54.72
2019-04-01T01:57:12.116Z,54.80
2019-04-01T01:58:17.138Z,54.83
2019-04-01T01:59:22.383Z,54.88
2019-04-01T02:00:28.500Z,54.92
2019-04-01T02:01:33.562Z,54.92
2019-04-01T02:02:38.781Z,54.96
2019-04-01T02:03:44.109Z,54.97
2019-04-01T02:04:49.160Z,54.96
2019-04-01T02:05:54.369Z,55.00
2019-04-01T02:06:59.725Z,55.06
2019-04-01T02:08:05.160Z,55.08
2019-04-01T02:09:12.989Z,55.14
2019-04-01T02:10:18.082Z,55.15
2019-04-01T02:11:23.445Z,55.15
2019-04-01T02:12:28.533Z,55.15
2019-04-01T02:13:33.669Z,55.20
2019-04-01T02:14:38.643Z,55.25
2019-04-01T02:15:44.394Z,55.27
2019-04-01T02:16:49.804Z,55.27
2019-04-01T02:17:54.942Z,55.27
2019-04-01T02:19:00.304Z,55.29
2019-04-01T02:20:06.149Z,55.28
2019-04-01T02:21:11.182Z,55.31
2019-04-01T02:22:16.156Z,55.33
2019-04-01T02:23:21.656Z,55.34
2019-04-01T02:24:26.651Z,55.35
2019-04-01T02:25:31.714Z,55.37
2019-04-01T02:26:36.731Z,55.40
2019-04-01T02:27:41.840Z,55.42
2019-04-01T02:28:47.133Z,55.43
2019-04-01T02:29:52.297Z,55.49
2019-04-01T02:30:57.309Z,55.55
2019-04-01T02:32:02.641Z,55.66
2019-04-01T02:33:08.004Z,55.72
2019-04-01T02:34:12.956Z,55.75
2019-04-01T02:35:18.253Z,55.75
2019-04-01T02:36:23.643Z,55.78
2019-04-01T02:37:28.669Z,55.80
2019-04-01T02:38:33.734Z,55.80
2019-04-01T02:39:38.762Z,55.81
2019-04-01T02:40:44.177Z,55.84
2019-04-01T02:41:49.400Z,55.83
2019-04-01T02:42:54.482Z,55.84
2019-04-01T02:43:59.522Z,55.85
2019-04-01T02:45:04.954Z,55.87
2019-04-01T02:46:10.071Z,55.91
2019-04-01T02:47:15.529Z,55.93
2019-04-01T02:48:20.551Z,55.97
2019-04-01T02:49:25.860Z,55.94
2019-04-01T02:50:31.305Z,55.98
2019-04-01T02:51:36.840Z,56.01
2019-04-01T02:52:41.920Z,56.03
2019-04-01T02:53:46.963Z,56.07
2019-04-01T02:54:52.317Z,56.08
2019-04-01T02:55:57.285Z,56.08
2019-04-01T02:57:02.402Z,56.08
2019-04-01T02:58:07.512Z,56.09
2019-04-01T02:59:12.556Z,56.09
2019-04-01T03:00:17.906Z,56.09
2019-04-01T03:01:23.196Z,56.09
2019-04-01T03:02:28.504Z,56.12
2019-04-01T03:03:34.099Z,56.14
2019-04-01T03:04:39.327Z,56.14
2019-04-01T03:05:45.221Z,56.14
2019-04-01T03:06:50.444Z,56.17
2019-04-01T03:07:55.569Z,56.20
2019-04-01T03:09:00.749Z,56.21
2019-04-01T03:10:06.327Z,56.22
2019-04-01T03:11:11.745Z,56.22
2019-04-01T03:12:17.067Z,56.19
2019-04-01T03:13:22.181Z,56.23
2019-04-01T03:14:27.272Z,56.28
2019-04-01T03:15:32.642Z,56.32
2019-04-01T03:16:37.732Z,56.39
2019-04-01T03:17:43.117Z,56.45
2019-04-01T03:18:48.351Z,56.52
2019-04-01T03:19:53.475Z,56.54
2019-04-01T03:20:58.861Z,56.57
2019-04-01T03:22:03.886Z,56.60
2019-04-01T03:23:09.098Z,56.56
2019-04-01T03:24:14.452Z,56.56
2019-04-01T03:25:19.483Z,56.60
2019-04-01T03:26:24.943Z,56.61
2019-04-01T03:27:30.222Z,56.65
2019-04-01T03:28:35.275Z,56.62
2019-04-01T03:29:40.404Z,56.65
2019-04-01T03:30:45.852Z,56.67
2019-04-01T03:31:50.934Z,56.70
2019-04-01T03:32:56.878Z,56.76
2019-04-01T03:34:01.975Z,56.78
2019-04-01T03:35:07.924Z,56.79
2019-04-01T03:36:13.518Z,56.80
2019-04-01T03:37:18.545Z,56.81
2019-04-01T03:38:27.845Z,56.86
2019-04-01T03:39:31.263Z,56.89
2019-04-01T03:40:36.305Z,56.91
2019-04-01T03:41:41.338Z,56.94
2019-04-01T03:42:46.764Z,56.95
2019-04-01T03:43:52.494Z,56.94
2019-04-01T03:44:57.904Z,56.94
2019-04-01T03:46:03.025Z,56.93
2019-04-01T03:47:08.245Z,56.98
2019-04-01T03:48:13.345Z,57.01
2019-04-01T03:49:18.429Z,57.06
2019-04-01T03:50:23.508Z,57.08
2019-04-01T03:51:28.560Z,57.10
2019-04-01T03:52:33.601Z,57.11
2019-04-01T03:53:38.670Z,57.13
2019-04-01T03:54:44.039Z,57.15
2019-04-01T03:55:49.136Z,57.16
2019-04-01T03:56:54.515Z,57.18
2019-04-01T03:57:59.559Z,57.14
2019-04-01T03:59:04.797Z,57.17
2019-04-01T04:00:10.215Z,57.21
2019-04-01T04:01:15.266Z,57.22
2019-04-01T04:02:20.483Z,57.23
2019-04-01T04:03:25.497Z,57.24
2019-04-01T04:04:30.923Z,57.26
2019-04-01T04:05:36.325Z,57.27
2019-04-01T04:06:41.817Z,57.31
2019-04-01T04:07:46.910Z,57.29
2019-04-01T04:08:52.118Z,57.26
2019-04-01T04:09:57.599Z,57.23
2019-04-01T04:11:02.706Z,57.24
2019-04-01T04:12:08.194Z,57.26
2019-04-01T04:13:13.606Z,57.29
2019-04-01T04:14:18.692Z,57.28
2019-04-01T04:15:24.191Z,57.30
2019-04-01T04:16:29.578Z,57.31
2019-04-01T04:17:34.766Z,57.31
2019-04-01T04:18:39.836Z,57.34
2019-04-01T04:19:45.231Z,57.35
2019-04-01T04:20:50.390Z,57.36
2019-04-01T04:21:55.532Z,57.38
2019-04-01T04:23:00.615Z,57.37
2019-04-01T04:24:05.777Z,57.38
2019-04-01T04:25:11.311Z,57.41
2019-04-01T04:26:16.453Z,57.43
2019-04-01T04:27:21.513Z,57.45
2019-04-01T04:28:26.627Z,57.49
2019-04-01T04:29:31.737Z,57.50
2019-04-01T04:30:36.833Z,57.53
2019-04-01T04:31:42.345Z,57.55
2019-04-01T04:32:47.428Z,57.60
2019-04-01T04:33:52.447Z,57.63
2019-04-01T04:34:57.879Z,57.66
2019-04-01T04:36:03.373Z,57.69
2019-04-01T04:37:08.574Z,57.73
2019-04-01T04:38:13.941Z,57.78
2019-04-01T04:39:19.088Z,57.84
2019-04-01T04:40:24.510Z,57.89
2019-04-01T04:41:29.978Z,57.89
2019-04-01T04:42:35.006Z,57.89
2019-04-01T04:43:40.394Z,57.89
2019-04-01T04:44:45.657Z,57.90
2019-04-01T04:45:50.644Z,57.90
2019-04-01T04:46:56.272Z,57.91
2019-04-01T04:48:01.377Z,57.92
2019-04-01T04:49:06.324Z,57.95
2019-04-01T04:50:11.845Z,57.98
2019-04-01T04:51:16.892Z,57.98
2019-04-01T04:52:21.978Z,58.01
2019-04-01T04:53:27.890Z,58.05
2019-04-01T04:54:32.930Z,58.04
2019-04-01T04:55:38.009Z,58.05
2019-04-01T04:56:43.066Z,58.04
2019-04-01T04:57:48.070Z,58.06
2019-04-01T04:58:53.009Z,58.11
2019-04-01T04:59:58.105Z,58.11
2019-04-01T05:01:03.166Z,58.13
2019-04-01T05:02:09.105Z,58.15
2019-04-01T05:03:14.410Z,58.15
2019-04-01T05:04:19.667Z,58.17
2019-04-01T05:05:25.061Z,58.16
2019-04-01T05:06:30.163Z,58.19
2019-04-01T05:07:35.219Z,58.26
2019-04-01T05:08:40.380Z,58.28
2019-04-01T05:09:45.514Z,58.31
2019-04-01T05:10:50.553Z,58.35
2019-04-01T05:11:55.548Z,58.41
2019-04-01T05:13:00.703Z,58.47
2019-04-01T05:14:06.179Z,58.52
2019-04-01T05:15:11.466Z,58.57
2019-04-01T05:16:17.150Z,58.60
2019-04-01T05:17:22.553Z,58.59
2019-04-01T05:18:27.559Z,58.62
2019-04-01T05:19:32.917Z,58.61
2019-04-01T05:20:42.209Z,58.66
2019-04-01T05:21:47.778Z,58.68
2019-04-01T05:22:53.692Z,58.72
2019-04-01T05:23:59.605Z,58.75
2019-04-01T05:25:04.862Z,58.79
2019-04-01T05:26:11.220Z,58.81
2019-04-01T05:27:17.776Z,58.85
2019-04-01T05:28:24.287Z,58.85
2019-04-01T05:29:31.125Z,58.86
2019-04-01T05:30:37.800Z,58.86
2019-04-01T05:31:46.065Z,58.87
2019-04-01T05:32:52.946Z,58.91
2019-04-01T05:34:01.527Z,58.94
2019-04-01T05:35:09.701Z,58.96
2019-04-01T05:36:15.454Z,58.99
2019-04-01T05:37:20.990Z,59.03
2019-04-01T05:38:26.132Z,59.06
2019-04-01T05:39:31.860Z,59.06
2019-04-01T05:40:37.337Z,59.07
2019-04-01T05:41:42.643Z,59.03
2019-04-01T05:42:47.862Z,59.05
2019-04-01T05:43:54.269Z,59.10
2019-04-01T05:44:59.417Z,59.12
2019-04-01T05:46:04.684Z,59.20
2019-04-01T05:47:09.835Z,59.28
2019-04-01T05:48:16.019Z,59.35
2019-04-01T05:49:21.175Z,59.38
2019-04-01T05:50:26.434Z,59.36
2019-04-01T05:51:32.184Z,59.35
2019-04-01T05:52:37.341Z,59.34
2019-04-01T05:53:42.680Z,59.30
2019-04-01T05:54:48.266Z,59.20
2019-04-01T05:55:54.366Z,59.12
2019-04-01T05:56:59.663Z,59.12
2019-04-01T05:58:04.781Z,59.08
2019-04-01T05:59:09.981Z,58.98
2019-04-01T06:00:21.214Z,58.95
2019-04-01T06:01:30.473Z,58.90
2019-04-01T06:02:36.008Z,58.83
2019-04-01T06:03:42.115Z,58.76
2019-04-01T06:04:47.355Z,58.68
2019-04-01T06:05:52.503Z,58.62
2019-04-01T06:06:57.618Z,58.54
2019-04-01T06:08:03.016Z,58.42
2019-04-01T06:09:08.991Z,58.33
2019-04-01T06:10:14.452Z,58.35
2019-04-01T06:11:19.890Z,58.30
2019-04-01T06:12:25.041Z,58.22
2019-04-01T06:13:30.187Z,58.10
2019-04-01T06:14:35.531Z,58.02
2019-04-01T06:15:40.667Z,57.98
2019-04-01T06:16:45.658Z,57.89
2019-04-01T06:17:50.796Z,57.84
2019-04-01T06:18:56.154Z,57.82
2019-04-01T06:20:01.485Z,57.77
2019-04-01T06:21:07.187Z,57.77
2019-04-01T06:22:12.277Z,57.76
2019-04-01T06:23:17.511Z,57.67
2019-04-01T06:24:24.647Z,57.67
2019-04-01T06:25:29.669Z,57.62
2019-04-01T06:26:35.511Z,57.55
2019-04-01T06:27:41.596Z,57.50
2019-04-01T06:28:46.959Z,57.39
2019-04-01T06:29:52.064Z,57.37
2019-04-01T06:30:57.296Z,57.28
2019-04-01T06:32:02.772Z,57.21
2019-04-01T06:33:07.879Z,57.16
2019-04-01T06:34:13.043Z,57.08
2019-04-01T06:35:18.334Z,57.00
2019-04-01T06:36:23.451Z,56.95
2019-04-01T06:37:28.488Z,56.89
2019-04-01T06:38:33.952Z,56.81
2019-04-01T06:39:39.809Z,56.73
2019-04-01T06:40:44.921Z,56.70
2019-04-01T06:41:50.274Z,56.64
2019-04-01T06:42:55.684Z,56.63
2019-04-01T06:44:01.029Z,56.61
2019-04-01T06:45:07.020Z,56.56
2019-04-01T06:46:12.801Z,56.54
2019-04-01T06:47:17.957Z,56.40
2019-04-01T06:48:23.262Z,56.36
2019-04-01T06:49:28.498Z,56.27
2019-04-01T06:50:33.960Z,56.18
2019-04-01T06:51:39.088Z,56.09
2019-04-01T06:52:44.312Z,56.08
2019-04-01T06:53:49.423Z,56.04
2019-04-01T06:54:54.557Z,55.99
2019-04-01T06:55:59.674Z,55.95
2019-04-01T06:57:04.928Z,55.89
2019-04-01T06:58:11.893Z,55.82
2019-04-01T06:59:16.959Z,55.73
2019-04-01T07:00:22.149Z,55.68
2019-04-01T07:01:27.183Z,55.67
2019-04-01T07:02:32.355Z,55.64
2019-04-01T07:03:37.498Z,55.61
2019-04-01T07:04:43.130Z,55.59
2019-04-01T07:05:48.575Z,55.62
2019-04-01T07:06:54.298Z,55.56
2019-04-01T07:07:59.875Z,55.54
2019-04-01T07:09:06.651Z,55.52
2019-04-01T07:10:12.040Z,55.48
2019-04-01T07:11:17.557Z,55.40
2019-04-01T07:12:23.007Z,55.33
2019-04-01T07:13:28.566Z,55.31
2019-04-01T07:14:33.757Z,55.25
2019-04-01T07:15:39.213Z,55.16
2019-04-01T07:16:44.571Z,55.15
2019-04-01T07:17:49.732Z,55.11
2019-04-01T07:18:54.800Z,55.14
2019-04-01T07:19:59.860Z,55.14
2019-04-01T07:21:05.146Z,55.09
2019-04-01T07:22:10.262Z,55.04
2019-04-01T07:23:15.427Z,55.04
2019-04-01T07:24:20.565Z,54.96
2019-04-01T07:25:25.862Z,54.95
2019-04-01T07:26:31.749Z,54.91
2019-04-01T07:27:36.844Z,54.89
2019-04-01T07:28:42.420Z,54.87
2019-04-01T07:29:47.563Z,54.87
2019-04-01T07:30:53.025Z,54.86
2019-04-01T07:31:58.140Z,54.85
2019-04-01T07:33:03.171Z,54.84
2019-04-01T07:34:08.493Z,54.78
2019-04-01T07:35:13.819Z,54.76
2019-04-01T07:36:19.656Z,54.72
2019-04-01T07:37:24.769Z,54.70
2019-04-01T07:38:29.862Z,54.68
2019-04-01T07:39:35.004Z,54.73
2019-04-01T07:40:40.542Z,54.72
2019-04-01T07:41:45.834Z,54.74
2019-04-01T07:42:50.953Z,54.73
2019-04-01T07:43:56.057Z,54.71
2019-04-01T07:45:01.495Z,54.64
2019-04-01T07:46:08.310Z,54.52
2019-04-01T07:47:13.722Z,54.51
2019-04-01T07:48:19.628Z,54.50
2019-04-01T07:49:24.609Z,54.46
2019-04-01T07:50:29.714Z,54.41
2019-04-01T07:51:38.330Z,54.40
2019-04-01T07:52:42.029Z,54.33
2019-04-01T07:53:47.171Z,54.30
2019-04-01T07:54:52.211Z,54.28
2019-04-01T07:55:57.198Z,54.29
2019-04-01T07:57:02.339Z,54.29
2019-04-01T07:58:07.367Z,54.29
2019-04-01T07:59:12.410Z,54.30
2019-04-01T08:00:17.661Z,54.26
2019-04-01T08:01:22.848Z,54.22
2019-04-01T08:02:27.896Z,54.22
2019-04-01T08:03:33.021Z,54.22
2019-04-01T08:04:38.172Z,54.21
2019-04-01T08:05:43.282Z,54.17
2019-04-01T08:06:48.766Z,54.13
2019-04-01T08:07:54.047Z,54.13
2019-04-01T08:08:59.222Z,54.07
2019-04-01T08:10:05.482Z,53.98
2019-04-01T08:11:10.483Z,53.98
2019-04-01T08:12:15.530Z,53.96
2019-04-01T08:13:20.633Z,53.92
2019-04-01T08:14:25.779Z,53.88
2019-04-01T08:15:31.296Z,53.78
2019-04-01T08:16:36.614Z,53.73
2019-04-01T08:17:42.274Z,53.68
2019-04-01T08:18:47.986Z,53.64
2019-04-01T08:19:52.954Z,53.59
2019-04-01T08:20:57.886Z,53.54
2019-04-01T08:22:02.928Z,53.55
2019-04-01T08:23:08.189Z,53.51
2019-04-01T08:24:13.243Z,53.48
2019-04-01T08:25:18.608Z,53.35
2019-04-01T08:26:23.874Z,53.30
2019-04-01T08:27:28.842Z,53.30
2019-04-01T08:28:33.845Z,53.29
2019-04-01T08:29:39.221Z,53.24
2019-04-01T08:30:44.338Z,53.22
2019-04-01T08:31:49.699Z,53.20
2019-04-01T08:32:54.790Z,53.17
2019-04-01T08:34:00.377Z,53.12
2019-04-01T08:35:06.035Z,53.79
2019-04-01T08:36:11.187Z,53.07
2019-04-01T08:37:16.187Z,53.05
2019-04-01T08:38:21.548Z,53.03
2019-04-01T08:39:26.589Z,52.97
2019-04-01T08:40:31.603Z,52.92
2019-04-01T08:41:36.821Z,52.89
2019-04-01T08:42:41.999Z,52.84
2019-04-01T08:43:47.309Z,52.84
2019-04-01T08:44:52.704Z,52.83
2019-04-01T08:45:58.047Z,52.78
2019-04-01T08:47:03.407Z,52.78
2019-04-01T08:48:08.562Z,52.74
2019-04-01T08:49:13.528Z,52.66
2019-04-01T08:50:19.812Z,52.63
2019-04-01T08:51:24.929Z,52.51
2019-04-01T08:52:30.001Z,52.51
2019-04-01T08:53:36.132Z,52.17
2019-04-01T08:54:41.759Z,52.17
2019-04-01T08:55:46.708Z,52.47
2019-04-01T08:56:51.833Z,52.44
2019-04-01T08:57:57.562Z,52.39
2019-04-01T08:59:02.673Z,52.18
2019-04-01T09:00:09.732Z,52.39
2019-04-01T09:01:15.071Z,52.36
2019-04-01T09:02:21.583Z,52.30
2019-04-01T09:03:26.914Z,52.28
2019-04-01T09:04:32.012Z,52.18
2019-04-01T09:05:37.071Z,52.14
2019-04-01T09:06:42.129Z,52.09
2019-04-01T09:07:47.140Z,52.04
2019-04-01T09:08:54.125Z,51.99
2019-04-01T09:10:00.397Z,51.92
2019-04-01T09:11:05.738Z,51.87
2019-04-01T09:12:11.117Z,51.82
2019-04-01T09:13:16.609Z,51.78
2019-04-01T09:14:21.844Z,51.77
2019-04-01T09:15:27.195Z,51.80
2019-04-01T09:16:33.357Z,51.75
2019-04-01T09:17:40.208Z,51.72
2019-04-01T09:18:45.083Z,51.65
2019-04-01T09:19:50.000Z,51.59
2019-04-01T09:20:54.958Z,51.53
2019-04-01T09:22:00.362Z,51.47
2019-04-01T09:23:05.389Z,51.49
2019-04-01T09:24:10.448Z,51.46
2019-04-01T09:25:15.987Z,51.45
2019-04-01T09:26:21.473Z,51.38
2019-04-01T09:27:26.908Z,51.39
2019-04-01T09:28:31.984Z,51.38
2019-04-01T09:29:36.944Z,51.35
2019-04-01T09:30:42.281Z,51.31
2019-04-01T09:31:47.729Z,51.25
2019-04-01T09:32:52.773Z,51.20
2019-04-01T09:33:57.786Z,51.16
2019-04-01T09:35:03.089Z,51.10
2019-04-01T09:36:08.087Z,51.11
2019-04-01T09:37:13.143Z,51.09
2019-04-01T09:38:18.189Z,51.09
2019-04-01T09:39:23.176Z,51.09
2019-04-01T09:40:28.600Z,51.02
2019-04-01T09:41:33.488Z,50.98
2019-04-01T09:42:38.616Z,50.94
2019-04-01T09:43:43.684Z,50.87
2019-04-01T09:44:48.630Z,50.79
2019-04-01T09:45:53.699Z,50.70
2019-04-01T09:46:58.928Z,50.65
2019-04-01T09:48:04.329Z,50.60
2019-04-01T09:49:09.294Z,50.53
2019-04-01T09:50:14.693Z,50.49
2019-04-01T09:51:19.734Z,50.45
2019-04-01T09:52:24.820Z,50.40
2019-04-01T09:53:29.886Z,50.33
2019-04-01T09:54:35.109Z,50.31
2019-04-01T09:55:40.544Z,50.26
2019-04-01T09:56:45.474Z,50.22
2019-04-01T09:57:50.480Z,50.19
2019-04-01T09:58:55.810Z,50.18
2019-04-01T10:00:00.915Z,50.18
2019-04-01T10:01:05.945Z,50.11
2019-04-01T10:02:11.692Z,50.04
2019-04-01T10:03:16.623Z,50.00
2019-04-01T10:04:21.709Z,49.95
2019-04-01T10:05:27.616Z,49.92
2019-04-01T10:06:32.725Z,49.85
2019-04-01T10:07:38.858Z,49.77
2019-04-01T10:08:44.276Z,49.75
2019-04-01T10:09:49.412Z,49.69
2019-04-01T10:10:54.502Z,49.63
2019-04-01T10:11:59.480Z,49.62
2019-04-01T10:13:04.633Z,49.63
2019-04-01T10:14:09.768Z,49.58
2019-04-01T10:15:14.867Z,49.51
2019-04-01T10:16:20.039Z,49.44
2019-04-01T10:17:25.201Z,49.38
2019-04-01T10:18:30.781Z,49.31
2019-04-01T10:19:36.287Z,49.24
2019-04-01T10:20:41.361Z,49.19
2019-04-01T10:21:46.458Z,49.08
2019-04-01T10:22:51.474Z,49.00
2019-04-01T10:23:56.473Z,48.95
2019-04-01T10:25:01.374Z,48.94
2019-04-01T10:26:06.511Z,48.89
2019-04-01T10:27:11.870Z,48.81
2019-04-01T10:28:17.356Z,48.76
2019-04-01T10:29:22.419Z,48.73
2019-04-01T10:30:27.939Z,48.73
2019-04-01T10:31:33.377Z,48.78
2019-04-01T10:32:38.826Z,48.71
2019-04-01T10:33:43.882Z,48.62
2019-04-01T10:34:49.201Z,48.54
2019-04-01T10:35:54.576Z,48.49
2019-04-01T10:36:59.577Z,48.45
2019-04-01T10:38:05.262Z,48.42
2019-04-01T10:39:10.307Z,48.36
2019-04-01T10:40:15.916Z,48.31
2019-04-01T10:41:21.014Z,48.28
2019-04-01T10:42:26.132Z,48.24
2019-04-01T10:43:31.116Z,48.24
2019-04-01T10:44:36.039Z,48.20
2019-04-01T10:45:41.192Z,48.18
2019-04-01T10:46:47.015Z,48.12
2019-04-01T10:47:52.292Z,48.07
2019-04-01T10:48:57.477Z,48.02
2019-04-01T10:50:02.545Z,48.01
2019-04-01T10:51:07.596Z,47.95
2019-04-01T10:52:12.659Z,47.89
2019-04-01T10:53:17.816Z,47.88
2019-04-01T10:54:23.086Z,47.84
2019-04-01T10:55:28.188Z,47.82
2019-04-01T10:56:35.855Z,47.83
2019-04-01T10:57:46.143Z,47.83
2019-04-01T10:58:51.941Z,47.84
2019-04-01T10:59:56.910Z,47.84
2019-04-01T11:01:01.900Z,47.77
2019-04-01T11:02:06.975Z,47.76
2019-04-01T11:03:12.313Z,47.74
2019-04-01T11:04:17.710Z,47.75
2019-04-01T11:05:23.360Z,47.67
2019-04-01T11:06:28.726Z,47.64
2019-04-01T11:07:34.099Z,47.58
2019-04-01T11:08:39.129Z,47.52
2019-04-01T11:09:44.610Z,47.48
2019-04-01T11:10:49.727Z,47.46
2019-04-01T11:11:55.155Z,47.48
2019-04-01T11:13:01.150Z,47.48
2019-04-01T11:14:06.876Z,47.50
2019-04-01T11:15:15.346Z,47.49
2019-04-01T11:16:19.192Z,47.48
2019-04-01T11:17:24.700Z,47.40
2019-04-01T11:18:30.292Z,47.37
2019-04-01T11:19:35.862Z,47.39
2019-04-01T11:20:40.928Z,47.29
2019-04-01T11:21:45.928Z,47.29
2019-04-01T11:22:50.955Z,47.26
2019-04-01T11:23:56.055Z,47.21
2019-04-01T11:25:01.284Z,47.17
2019-04-01T11:26:06.632Z,47.10
2019-04-01T11:27:11.760Z,47.01
2019-04-01T11:28:16.731Z,46.85
2019-04-01T11:29:25.515Z,46.75
2019-04-01T11:30:28.940Z,46.74
2019-04-01T11:31:35.095Z,46.70
2019-04-01T11:32:43.039Z,46.71
2019-04-01T11:33:48.178Z,46.66
2019-04-01T11:34:56.055Z,46.61
2019-04-01T11:36:00.813Z,46.57
2019-04-01T11:37:06.362Z,46.58
2019-04-01T11:38:13.011Z,46.55
2019-04-01T11:39:18.665Z,46.51
2019-04-01T11:40:24.278Z,46.43
2019-04-01T11:41:29.629Z,46.38
2019-04-01T11:42:35.294Z,46.37
2019-04-01T11:43:40.340Z,46.35
2019-04-01T11:44:45.599Z,46.32
2019-04-01T11:45:50.633Z,46.31
2019-04-01T11:46:56.293Z,46.28
2019-04-01T11:48:01.335Z,46.29
2019-04-01T11:49:06.860Z,46.27
2019-04-01T11:50:12.488Z,46.18
2019-04-01T11:51:32.052Z,46.12
2019-04-01T11:52:24.607Z,46.08
2019-04-01T11:53:29.633Z,46.07
2019-04-01T11:54:34.759Z,46.01
2019-04-01T11:55:39.812Z,46.02
2019-04-01T11:56:46.449Z,45.97
2019-04-01T11:57:51.611Z,45.86
2019-04-01T11:58:57.099Z,45.80
2019-04-01T12:01:19.110Z,45.75
2019-04-01T12:02:24.288Z,45.76
2019-04-01T12:03:29.625Z,45.75
2019-04-01T12:04:39.776Z,45.73
2019-04-01T12:05:45.056Z,45.75
2019-04-01T12:06:50.392Z,45.75
2019-04-01T12:07:55.668Z,45.77
2019-04-01T12:09:01.071Z,45.76
2019-04-01T12:10:07.713Z,45.78
2019-04-01T12:11:13.099Z,45.75
2019-04-01T12:12:24.113Z,45.76
2019-04-01T12:13:24.907Z,45.68
2019-04-01T12:14:29.964Z,45.61
2019-04-01T12:15:35.174Z,45.58
2019-04-01T12:16:40.156Z,45.56
2019-04-01T12:17:45.457Z,45.52
2019-04-01T12:18:51.261Z,45.53
2019-04-01T12:19:56.865Z,45.45
2019-04-01T12:21:02.223Z,45.38
2019-04-01T12:22:07.287Z,45.35
2019-04-01T12:23:12.298Z,45.23
2019-04-01T12:24:17.742Z,45.18
2019-04-01T12:25:22.752Z,45.17
2019-04-01T12:26:27.952Z,45.17
2019-04-01T12:27:32.868Z,45.19
2019-04-01T12:28:37.891Z,45.21
2019-04-01T12:29:42.936Z,45.20
2019-04-01T12:30:48.454Z,45.16
2019-04-01T12:31:53.579Z,45.12
2019-04-01T12:32:58.602Z,45.05
2019-04-01T12:34:04.112Z,44.93
2019-04-01T12:35:11.005Z,44.75
2019-04-01T12:36:16.361Z,44.64
2019-04-01T12:37:21.368Z,44.60
2019-04-01T12:38:26.371Z,44.57
2019-04-01T12:39:31.348Z,44.57
2019-04-01T12:40:36.640Z,44.56
2019-04-01T12:41:41.872Z,44.57
2019-04-01T12:42:50.600Z,44.59
2019-04-01T12:43:53.770Z,44.55
2019-04-01T12:44:58.807Z,44.48
2019-04-01T12:46:04.393Z,44.49
2019-04-01T12:47:09.436Z,44.40
2019-04-01T12:48:14.544Z,44.40
2019-04-01T12:49:19.662Z,44.41
2019-04-01T12:50:24.782Z,44.33
2019-04-01T12:51:30.424Z,44.23
2019-04-01T12:52:35.542Z,44.15
2019-04-01T12:53:40.941Z,44.10
2019-04-01T12:54:46.316Z,44.07
2019-04-01T12:55:51.384Z,44.06
2019-04-01T12:56:56.817Z,43.98
2019-04-01T12:58:02.096Z,43.93
2019-04-01T12:59:07.240Z,43.85
2019-04-01T13:00:13.772Z,43.82
2019-04-01T13:01:20.424Z,43.81
2019-04-01T13:02:25.648Z,43.84
2019-04-01T13:03:30.719Z,43.83
2019-04-01T13:04:36.307Z,43.81
2019-04-01T13:05:41.865Z,43.73
2019-04-01T13:06:46.984Z,43.71
2019-04-01T13:07:54.121Z,43.66
2019-04-01T13:09:00.284Z,43.56
2019-04-01T13:10:06.750Z,43.45
2019-04-01T13:11:12.629Z,43.42
2019-04-01T13:12:18.216Z,43.39
2019-04-01T13:13:23.264Z,43.38
2019-04-01T13:14:28.422Z,43.38
2019-04-01T13:15:33.831Z,43.40
2019-04-01T13:16:39.261Z,43.41
2019-04-01T13:17:44.286Z,43.44
2019-04-01T13:18:50.006Z,43.44
2019-04-01T13:19:55.099Z,43.39
2019-04-01T13:21:00.172Z,43.36
2019-04-01T13:22:06.129Z,43.33
2019-04-01T13:23:11.175Z,43.35
2019-04-01T13:24:16.176Z,43.35
2019-04-01T13:25:21.199Z,43.32
2019-04-01T13:26:26.290Z,43.25
2019-04-01T13:27:31.521Z,43.12
2019-04-01T13:28:36.458Z,43.00
2019-04-01T13:29:41.460Z,42.98
2019-04-01T13:30:46.760Z,42.98
2019-04-01T13:31:51.918Z,43.03
2019-04-01T13:32:57.103Z,43.00
2019-04-01T13:34:02.104Z,42.98
2019-04-01T13:35:07.537Z,42.91
2019-04-01T13:36:12.570Z,42.89
2019-04-01T13:37:18.368Z,42.85
2019-04-01T13:38:24.255Z,42.84
2019-04-01T13:39:29.340Z,42.86
2019-04-01T13:40:34.436Z,42.84
2019-04-01T13:41:42.758Z,42.83
2019-04-01T13:42:46.616Z,42.80
2019-04-01T13:43:51.882Z,42.80
2019-04-01T13:44:57.203Z,42.78
2019-04-01T13:46:02.498Z,42.75
2019-04-01T13:47:07.524Z,42.74
2019-04-01T13:48:13.114Z,42.74
2019-04-01T13:49:18.447Z,42.71
2019-04-01T13:50:23.505Z,42.71
2019-04-01T13:51:28.616Z,42.66
2019-04-01T13:52:35.229Z,42.59
2019-04-01T13:53:40.447Z,42.52
2019-04-01T13:54:45.838Z,42.53
2019-04-01T13:55:51.164Z,42.50
2019-04-01T13:56:56.537Z,42.49
2019-04-01T13:58:01.742Z,42.46
2019-04-01T13:59:09.719Z,42.38
2019-04-01T14:00:14.846Z,42.25
2019-04-01T14:01:19.894Z,42.20
2019-04-01T14:02:26.613Z,42.17
2019-04-01T14:03:31.816Z,42.14